createdAt,value
2016-04-08T00:00:06.349Z,0
2016-04-08T00:01:06.321Z,0
2016-04-08T00:02:06.339Z,0
2016-04-08T00:03:06.357Z,0
2016-04-08T00:04:06.313Z,0
2016-04-08T00:05:06.332Z,0
2016-04-08T00:06:06.303Z,0
2016-04-08T00:07:06.306Z,0
2016-04-08T00:08:06.293Z,0
2016-04-08T00:09:06.312Z,0
2016-04-08T00:10:06.298Z,0
2016-04-08T00:11:06.285Z,0
2016-04-08T00:12:06.273Z,0
2016-04-08T00:13:06.401Z,0
2016-04-08T00:14:06.126Z,0
2016-04-08T00:15:06.300Z,0
2016-04-08T00:16:06.287Z,0
2016-04-08T00:17:06.290Z,0
2016-04-08T00:18:06.308Z,0
2016-04-08T00:19:06.296Z,0
2016-04-08T00:20:09.485Z,0
2016-04-08T00:21:06.270Z,0
2016-04-08T00:22:06.288Z,0
2016-04-08T00:23:06.259Z,0
2016-04-08T00:24:06.278Z,0
2016-04-08T00:25:06.233Z,0
2016-04-08T00:26:06.267Z,0
2016-04-08T00:27:06.239Z,0
2016-04-08T00:28:06.272Z,0
2016-04-08T00:29:06.244Z,0
2016-04-08T00:30:06.261Z,0
2016-04-08T00:31:06.249Z,0
2016-04-08T00:32:06.236Z,0
2016-04-08T00:33:06.222Z,0
2016-04-08T00:34:06.273Z,0
2016-04-08T00:35:06.244Z,0
2016-04-08T00:36:06.310Z,0
2016-04-08T00:37:06.219Z,0
2016-04-08T00:38:06.236Z,0
2016-04-08T00:39:06.224Z,0
2016-04-08T00:40:06.242Z,0
2016-04-08T00:41:06.244Z,0
2016-04-08T00:42:06.247Z,0
2016-04-08T00:43:06.249Z,0
2016-04-08T00:44:06.190Z,0
2016-04-08T00:45:06.209Z,0
2016-04-08T00:46:06.226Z,0
2016-04-08T00:47:06.198Z,0
2016-04-08T00:48:06.201Z,0
2016-04-08T00:49:06.220Z,0
2016-04-08T00:50:06.191Z,0
2016-04-08T00:51:06.178Z,0
2016-04-08T00:52:06.181Z,0
2016-04-08T00:53:06.214Z,0
2016-04-08T00:54:06.186Z,0
2016-04-08T00:55:06.189Z,0
2016-04-08T00:56:06.175Z,0
2016-04-08T00:57:06.210Z,0
2016-04-08T00:58:06.181Z,0
2016-04-08T00:59:06.168Z,0
2016-04-08T01:00:06.170Z,0
2016-04-08T01:01:06.158Z,0
2016-04-08T01:02:06.176Z,0
2016-04-08T01:03:06.163Z,0
2016-04-08T01:04:06.166Z,0
2016-04-08T01:05:06.153Z,0
2016-04-08T01:06:06.155Z,0
2016-04-08T01:07:06.158Z,0
2016-04-08T01:08:06.161Z,0
2016-04-08T01:09:06.148Z,0
2016-04-08T01:10:06.152Z,0
2016-04-08T01:11:06.154Z,0
2016-04-08T01:12:06.125Z,0
2016-04-08T01:13:06.035Z,0
2016-04-08T01:14:06.162Z,0
2016-04-08T01:15:06.118Z,0
2016-04-08T01:16:06.135Z,0
2016-04-08T01:17:06.170Z,0
2016-04-08T01:18:06.126Z,0
2016-04-08T01:19:06.112Z,0
2016-04-08T01:20:06.115Z,0
2016-04-08T01:21:06.133Z,0
2016-04-08T01:22:06.136Z,0
2016-04-08T01:23:06.107Z,0
2016-04-08T01:24:06.110Z,0
2016-04-08T01:25:06.113Z,0
2016-04-08T01:26:06.100Z,0
2016-04-08T01:27:06.072Z,0
2016-04-08T01:28:06.199Z,0
2016-04-08T01:29:06.108Z,0
2016-04-08T01:30:06.126Z,0
2016-04-08T01:31:06.128Z,0
2016-04-08T01:32:06.100Z,0
2016-04-08T01:33:06.072Z,0
2016-04-08T01:34:06.091Z,0
2016-04-08T01:35:06.078Z,0
2016-04-08T01:36:06.065Z,0
2016-04-08T01:37:06.099Z,0
2016-04-08T01:38:06.086Z,0
2016-04-08T01:39:06.072Z,0
2016-04-08T01:40:06.060Z,0
2016-04-08T01:41:06.078Z,0
2016-04-08T01:42:06.065Z,0
2016-04-08T01:43:06.146Z,0
2016-04-08T01:44:06.085Z,0
2016-04-08T01:45:06.073Z,0
2016-04-08T01:46:06.060Z,0
2016-04-08T01:47:06.047Z,0
2016-04-08T01:48:06.050Z,0
2016-04-08T01:49:06.068Z,0
2016-04-08T01:50:06.055Z,0
2016-04-08T01:51:06.042Z,0
2016-04-08T01:52:06.014Z,0
2016-04-08T01:53:06.032Z,0
2016-04-08T01:54:06.034Z,0
2016-04-08T01:55:06.053Z,0
2016-04-08T01:56:06.024Z,0
2016-04-08T01:57:06.027Z,0
2016-04-08T01:58:06.030Z,0
2016-04-08T01:59:06.033Z,0
2016-04-08T02:00:06.004Z,0
2016-04-08T02:01:06.006Z,0
2016-04-08T02:02:06.025Z,0
2016-04-08T02:03:05.981Z,0
2016-04-08T02:04:06.031Z,0
2016-04-08T02:05:05.970Z,0
2016-04-08T02:06:06.005Z,0
2016-04-08T02:07:06.038Z,0
2016-04-08T02:08:05.992Z,0
2016-04-08T02:09:05.979Z,0
2016-04-08T02:10:05.982Z,0
2016-04-08T02:11:05.970Z,0
2016-04-08T02:12:05.987Z,0
2016-04-08T02:13:06.022Z,0
2016-04-08T02:14:05.961Z,0
2016-04-08T02:15:05.980Z,0
2016-04-08T02:16:05.952Z,0
2016-04-08T02:17:05.969Z,0
2016-04-08T02:18:05.972Z,0
2016-04-08T02:19:05.959Z,0
2016-04-08T02:20:05.993Z,0
2016-04-08T02:21:05.949Z,0
2016-04-08T02:22:05.967Z,0
2016-04-08T02:23:05.954Z,0
2016-04-08T02:24:05.988Z,0
2016-04-08T02:25:05.944Z,0
2016-04-08T02:26:05.932Z,0
2016-04-08T02:27:05.950Z,0
2016-04-08T02:28:05.937Z,0
2016-04-08T02:29:05.940Z,0
2016-04-08T02:30:05.910Z,0
2016-04-08T02:31:05.913Z,0
2016-04-08T02:32:05.915Z,0
2016-04-08T02:33:05.918Z,0
2016-04-08T02:34:05.906Z,0
2016-04-08T02:35:05.909Z,0
2016-04-08T02:36:05.927Z,0
2016-04-08T02:37:05.898Z,0
2016-04-08T02:38:05.901Z,0
2016-04-08T02:39:05.889Z,0
2016-04-08T02:40:05.891Z,0
2016-04-08T02:41:05.894Z,0
2016-04-08T02:42:05.896Z,0
2016-04-08T02:43:05.899Z,0
2016-04-08T02:44:05.886Z,0
2016-04-08T02:45:05.872Z,0
2016-04-08T02:46:05.875Z,0
2016-04-08T02:47:05.878Z,0
2016-04-08T02:48:05.866Z,0
2016-04-08T02:49:05.883Z,0
2016-04-08T02:50:05.871Z,0
2016-04-08T02:51:05.874Z,0
2016-04-08T02:52:05.861Z,0
2016-04-08T02:53:05.847Z,0
2016-04-08T02:54:05.850Z,0
2016-04-08T02:55:05.853Z,0
2016-04-08T02:56:05.855Z,0
2016-04-08T02:57:05.843Z,0
2016-04-08T02:58:05.845Z,0
2016-04-08T02:59:05.848Z,0
2016-04-08T03:00:05.851Z,0
2016-04-08T03:01:05.901Z,0
2016-04-08T03:02:05.826Z,0
2016-04-08T03:03:05.812Z,0
2016-04-08T03:04:05.846Z,0
2016-04-08T03:05:05.801Z,0
2016-04-08T03:06:05.804Z,0
2016-04-08T03:07:05.807Z,0
2016-04-08T03:08:05.653Z,0
2016-04-08T03:09:05.812Z,0
2016-04-08T03:10:05.846Z,0
2016-04-08T03:11:05.802Z,0
2016-04-08T03:12:05.789Z,0
2016-04-08T03:13:05.775Z,0
2016-04-08T03:14:05.779Z,0
2016-04-08T03:15:05.766Z,0
2016-04-08T03:16:05.769Z,0
2016-04-08T03:17:05.787Z,0
2016-04-08T03:18:05.758Z,0
2016-04-08T03:19:05.761Z,0
2016-04-08T03:20:05.749Z,0
2016-04-08T03:21:05.610Z,0
2016-04-08T03:22:05.754Z,0
2016-04-08T03:23:05.741Z,0
2016-04-08T03:24:05.728Z,0
2016-04-08T03:25:05.731Z,0
2016-04-08T03:26:05.749Z,0
2016-04-08T03:27:05.768Z,0
2016-04-08T03:28:05.739Z,0
2016-04-08T03:29:05.710Z,0
2016-04-08T03:30:05.713Z,0
2016-04-08T03:31:05.715Z,0
2016-04-08T03:32:05.718Z,0
2016-04-08T03:33:05.704Z,0
2016-04-08T03:34:05.707Z,0
2016-04-08T03:35:05.759Z,0
2016-04-08T03:36:05.790Z,0
2016-04-08T03:37:05.791Z,0
2016-04-08T03:38:05.696Z,0
2016-04-08T03:39:05.915Z,0
2016-04-08T03:40:05.909Z,0
2016-04-08T03:41:05.942Z,0
2016-04-08T03:42:05.929Z,0
2016-04-08T03:43:05.979Z,0
2016-04-08T03:44:05.966Z,0
2016-04-08T03:45:05.993Z,0
2016-04-08T03:46:05.954Z,0
2016-04-08T03:47:05.961Z,0
2016-04-08T03:48:05.969Z,0
2016-04-08T03:49:05.977Z,0
2016-04-08T03:50:05.967Z,0
2016-04-08T03:51:05.972Z,0
2016-04-08T03:52:05.993Z,0
2016-04-08T03:53:05.965Z,0
2016-04-08T03:54:05.970Z,0
2016-04-08T03:55:05.959Z,0
2016-04-08T03:56:05.977Z,0
2016-04-08T03:57:05.980Z,0
2016-04-08T03:58:05.953Z,0
2016-04-08T03:59:05.956Z,0
2016-04-08T04:00:05.959Z,0
2016-04-08T04:01:05.947Z,0
2016-04-08T04:02:05.935Z,0
2016-04-08T04:03:05.922Z,0
2016-04-08T04:04:05.925Z,0
2016-04-08T04:05:05.944Z,0
2016-04-08T04:06:05.946Z,0
2016-04-08T04:07:05.965Z,0
2016-04-08T04:08:05.935Z,0
2016-04-08T04:09:05.923Z,0
2016-04-08T04:10:05.926Z,0
2016-04-08T04:11:05.959Z,0
2016-04-08T04:12:05.931Z,0
2016-04-08T04:13:05.902Z,0
2016-04-08T04:14:05.904Z,0
2016-04-08T04:15:05.893Z,0
2016-04-08T04:16:05.895Z,4
2016-04-08T04:17:05.882Z,4
2016-04-08T04:18:05.932Z,4
2016-04-08T04:19:05.887Z,4
2016-04-08T04:20:05.890Z,0
2016-04-08T04:21:05.877Z,4
2016-04-08T04:22:05.864Z,4
2016-04-08T04:23:05.898Z,8
2016-04-08T04:24:05.886Z,4
2016-04-08T04:25:05.872Z,8
2016-04-08T04:26:05.906Z,4
2016-04-08T04:27:05.861Z,8
2016-04-08T04:28:05.833Z,8
2016-04-08T04:29:05.852Z,12
2016-04-08T04:30:05.855Z,12
2016-04-08T04:31:05.842Z,16
2016-04-08T04:32:05.844Z,16
2016-04-08T04:33:05.847Z,20
2016-04-08T04:34:05.833Z,20
2016-04-08T04:35:05.821Z,24
2016-04-08T04:36:05.824Z,28
2016-04-08T04:37:05.826Z,32
2016-04-08T04:38:05.844Z,36
2016-04-08T04:39:05.816Z,44
2016-04-08T04:40:05.850Z,44
2016-04-08T04:41:05.807Z,52
2016-04-08T04:42:05.809Z,60
2016-04-08T04:43:05.812Z,64
2016-04-08T04:44:05.829Z,72
2016-04-08T04:45:05.817Z,80
2016-04-08T04:46:05.788Z,92
2016-04-08T04:47:05.806Z,100
2016-04-08T04:48:05.793Z,108
2016-04-08T04:49:05.795Z,116
2016-04-08T04:50:05.767Z,128
2016-04-08T04:51:05.833Z,136
2016-04-08T04:52:05.773Z,148
2016-04-08T04:53:05.775Z,160
2016-04-08T04:54:05.748Z,172
2016-04-08T04:55:05.781Z,184
2016-04-08T04:56:05.784Z,196
2016-04-08T04:57:05.756Z,208
2016-04-08T04:58:05.758Z,220
2016-04-08T04:59:05.745Z,232
2016-04-08T05:00:05.763Z,248
2016-04-08T05:01:05.735Z,260
2016-04-08T05:02:05.722Z,272
2016-04-08T05:03:05.724Z,284
2016-04-08T05:04:05.727Z,296
2016-04-08T05:05:05.729Z,312
2016-04-08T05:06:05.732Z,320
2016-04-08T05:07:05.719Z,332
2016-04-08T05:08:05.722Z,348
2016-04-08T05:09:05.725Z,368
2016-04-08T05:10:05.696Z,392
2016-04-08T05:11:05.730Z,412
2016-04-08T05:12:05.718Z,440
2016-04-08T05:13:05.720Z,460
2016-04-08T05:14:05.785Z,492
2016-04-08T05:15:05.726Z,528
2016-04-08T05:16:05.696Z,564
2016-04-08T05:17:05.685Z,604
2016-04-08T05:18:05.546Z,636
2016-04-08T05:19:05.690Z,660
2016-04-08T05:20:05.693Z,692
2016-04-08T05:21:05.679Z,740
2016-04-08T05:22:05.682Z,792
2016-04-08T05:23:05.653Z,840
2016-04-08T05:24:05.672Z,884
2016-04-08T05:25:05.534Z,924
2016-04-08T05:26:05.677Z,948
2016-04-08T05:27:05.680Z,980
2016-04-08T05:28:05.682Z,1040
2016-04-08T05:29:05.700Z,1128
2016-04-08T05:30:05.656Z,1236
2016-04-08T05:31:06.003Z,1364
2016-04-08T05:32:05.647Z,1480
2016-04-08T05:33:05.508Z,1548
2016-04-08T05:34:05.636Z,1656
2016-04-08T05:35:05.655Z,1760
2016-04-08T05:36:05.658Z,1792
2016-04-08T05:37:05.628Z,1852
2016-04-08T05:38:05.631Z,1968
2016-04-08T05:39:05.649Z,2032
2016-04-08T05:40:05.621Z,2112
2016-04-08T05:41:05.639Z,2140
2016-04-08T05:42:05.626Z,2244
2016-04-08T05:43:05.660Z,2268
2016-04-08T05:44:05.990Z,2312
2016-04-08T05:45:05.649Z,2364
2016-04-08T05:46:05.621Z,2412
2016-04-08T05:47:05.654Z,2492
2016-04-08T05:48:05.612Z,2552
2016-04-08T05:49:05.598Z,2624
2016-04-08T05:50:05.648Z,2700
2016-04-08T05:51:05.635Z,2764
2016-04-08T05:52:05.606Z,2812
2016-04-08T05:53:05.671Z,2856
2016-04-08T05:54:05.595Z,2936
2016-04-08T05:55:05.583Z,3008
2016-04-08T05:56:05.617Z,3068
2016-04-08T05:57:05.603Z,3104
2016-04-08T05:58:05.434Z,3152
2016-04-08T05:59:05.594Z,3224
2016-04-08T06:00:05.612Z,3300
2016-04-08T06:01:05.600Z,3368
2016-04-08T06:02:05.586Z,3436
2016-04-08T06:03:05.558Z,3512
2016-04-08T06:04:05.420Z,3552
2016-04-08T06:05:05.563Z,3592
2016-04-08T06:06:05.581Z,3644
2016-04-08T06:07:05.553Z,3692
2016-04-08T06:08:05.571Z,3700
2016-04-08T06:09:05.574Z,3676
2016-04-08T06:10:05.560Z,3648
2016-04-08T06:11:05.532Z,3636
2016-04-08T06:12:05.551Z,3632
2016-04-08T06:13:05.569Z,3624
2016-04-08T06:14:05.681Z,3640
2016-04-08T06:15:05.591Z,3684
2016-04-08T06:16:05.577Z,3732
2016-04-08T06:17:08.565Z,3832
2016-04-08T06:18:05.582Z,3908
2016-04-08T06:19:05.570Z,4004
2016-04-08T06:20:05.541Z,4100
2016-04-08T06:21:05.528Z,4180
2016-04-08T06:22:05.578Z,4252
2016-04-08T06:23:05.534Z,4304
2016-04-08T06:24:05.520Z,4280
2016-04-08T06:25:05.539Z,4216
2016-04-08T06:26:05.509Z,4156
2016-04-08T06:27:05.528Z,4084
2016-04-08T06:28:05.531Z,4012
2016-04-08T06:29:05.564Z,3992
2016-04-08T06:30:05.520Z,3988
2016-04-08T06:31:05.523Z,4008
2016-04-08T06:32:05.511Z,4064
2016-04-08T06:33:05.514Z,4112
2016-04-08T06:34:05.548Z,4148
2016-04-08T06:35:05.519Z,4168
2016-04-08T06:36:05.522Z,4164
2016-04-08T06:37:05.540Z,4132
2016-04-08T06:38:05.512Z,4112
2016-04-08T06:39:05.530Z,4108
2016-04-08T06:40:04.767Z,4228
2016-04-08T06:41:05.505Z,4176
2016-04-08T06:42:05.507Z,4228
2016-04-08T06:43:05.510Z,4280
2016-04-08T06:44:05.888Z,4356
2016-04-08T06:45:05.515Z,4512
2016-04-08T06:46:05.502Z,4732
2016-04-08T06:47:05.505Z,4808
2016-04-08T06:48:05.508Z,4828
2016-04-08T06:49:05.494Z,5256
2016-04-08T06:50:05.513Z,4904
2016-04-08T06:51:05.484Z,5016
2016-04-08T06:52:05.487Z,5276
2016-04-08T06:53:05.473Z,4952
2016-04-08T06:54:05.507Z,5464
2016-04-08T06:55:05.495Z,5064
2016-04-08T06:56:05.498Z,4876
2016-04-08T06:57:05.484Z,6364
2016-04-08T06:58:05.503Z,4780
2016-04-08T06:59:05.849Z,4996
2016-04-08T07:00:05.493Z,5048
2016-04-08T07:01:05.484Z,6416
2016-04-08T07:02:05.503Z,5560
2016-04-08T07:03:05.489Z,7536
2016-04-08T07:04:05.492Z,5636
2016-04-08T07:05:05.463Z,5988
2016-04-08T07:06:05.497Z,7340
2016-04-08T07:07:05.500Z,8436
2016-04-08T07:08:05.519Z,8228
2016-04-08T07:09:05.475Z,5528
2016-04-08T07:10:05.526Z,8108
2016-04-08T07:11:05.512Z,6608
2016-04-08T07:12:05.484Z,5320
2016-04-08T07:13:05.549Z,5528
2016-04-08T07:14:05.537Z,6676
2016-04-08T07:15:05.539Z,4940
2016-04-08T07:16:05.558Z,6664
2016-04-08T07:17:05.747Z,4596
2016-04-08T07:18:05.672Z,4472
2016-04-08T07:19:05.550Z,4324
2016-04-08T07:20:05.552Z,4196
2016-04-08T07:21:05.789Z,4272
2016-04-08T07:22:05.557Z,4512
2016-04-08T07:23:05.561Z,4360
2016-04-08T07:24:05.579Z,4388
2016-04-08T07:25:05.582Z,5216
2016-04-08T07:26:05.569Z,4448
2016-04-08T07:27:05.571Z,4764
2016-04-08T07:28:05.574Z,4776
2016-04-08T07:29:05.560Z,5092
2016-04-08T07:30:05.564Z,4896
2016-04-08T07:31:05.551Z,4720
2016-04-08T07:32:05.584Z,4716
2016-04-08T07:33:05.571Z,4752
2016-04-08T07:34:05.574Z,4976
2016-04-08T07:35:05.562Z,4520
2016-04-08T07:36:05.579Z,4652
2016-04-08T07:37:05.551Z,4708
2016-04-08T07:38:05.554Z,4632
2016-04-08T07:39:05.573Z,4728
2016-04-08T07:40:05.559Z,4888
2016-04-08T07:41:05.593Z,4928
2016-04-08T07:42:05.534Z,4764
2016-04-08T07:43:05.568Z,5072
2016-04-08T07:44:05.570Z,5128
2016-04-08T07:45:05.556Z,5236
2016-04-08T07:46:05.575Z,5064
2016-04-08T07:47:05.578Z,5088
2016-04-08T07:48:05.550Z,5344
2016-04-08T07:49:05.553Z,5480
2016-04-08T07:50:05.587Z,5528
2016-04-08T07:51:05.573Z,5504
2016-04-08T07:52:05.544Z,6136
2016-04-08T07:53:05.611Z,6176
2016-04-08T07:54:05.581Z,6176
2016-04-08T07:55:05.600Z,6036
2016-04-08T07:56:05.586Z,6632
2016-04-08T07:57:08.574Z,6552
2016-04-08T07:58:05.561Z,7332
2016-04-08T07:59:05.548Z,6212
2016-04-08T08:00:05.551Z,7352
2016-04-08T08:01:05.554Z,6704
2016-04-08T08:02:05.571Z,6404
2016-04-08T08:03:05.559Z,7216
2016-04-08T08:04:05.561Z,7224
2016-04-08T08:05:05.986Z,6964
2016-04-08T08:06:05.567Z,6900
2016-04-08T08:07:05.554Z,6840
2016-04-08T08:08:05.556Z,6776
2016-04-08T08:09:05.559Z,6720
2016-04-08T08:10:05.562Z,6780
2016-04-08T08:11:05.564Z,6760
2016-04-08T08:12:05.568Z,6736
2016-04-08T08:13:05.554Z,7332
2016-04-08T08:14:06.151Z,7640
2016-04-08T08:15:05.747Z,7932
2016-04-08T08:16:05.562Z,7812
2016-04-08T08:17:05.659Z,8028
2016-04-08T08:18:05.567Z,8124
2016-04-08T08:19:05.555Z,8052
2016-04-08T08:20:05.558Z,8120
2016-04-08T08:21:05.576Z,8168
2016-04-08T08:22:05.641Z,8096
2016-04-08T08:23:05.597Z,8172
2016-04-08T08:24:05.584Z,8280
2016-04-08T08:25:05.618Z,8240
2016-04-08T08:26:05.714Z,8212
2016-04-08T08:27:05.592Z,8244
2016-04-08T08:28:05.595Z,8272
2016-04-08T08:29:05.597Z,8396
2016-04-08T08:30:05.693Z,8496
2016-04-08T08:31:05.619Z,8584
2016-04-08T08:32:05.621Z,8612
2016-04-08T08:33:05.624Z,8656
2016-04-08T08:34:05.627Z,8668
2016-04-08T08:35:05.629Z,8568
2016-04-08T08:36:05.632Z,8512
2016-04-08T08:37:05.635Z,8232
2016-04-08T08:38:05.653Z,8088
2016-04-08T08:39:05.640Z,8052
2016-04-08T08:40:05.658Z,7928
2016-04-08T08:41:05.629Z,7732
2016-04-08T08:42:05.648Z,7612
2016-04-08T08:43:05.650Z,7452
2016-04-08T08:44:05.669Z,7372
2016-04-08T08:45:05.687Z,7236
2016-04-08T08:46:05.659Z,7136
2016-04-08T08:47:06.130Z,7104
2016-04-08T08:48:05.680Z,7072
2016-04-08T08:49:05.714Z,7040
2016-04-08T08:50:05.669Z,6984
2016-04-08T08:51:04.922Z,6956
2016-04-08T08:52:05.674Z,6936
2016-04-08T08:53:05.694Z,6972
2016-04-08T08:54:05.680Z,6992
2016-04-08T08:55:05.699Z,7116
2016-04-08T08:56:05.686Z,7048
2016-04-08T08:57:05.704Z,6660
2016-04-08T08:58:05.691Z,6620
2016-04-08T08:59:05.710Z,6176
2016-04-08T09:00:05.712Z,6028
2016-04-08T09:01:05.715Z,5912
2016-04-08T09:02:05.701Z,6004
2016-04-08T09:03:05.721Z,5812
2016-04-08T09:04:05.551Z,6144
2016-04-08T09:05:05.710Z,6072
2016-04-08T09:06:05.713Z,6532
2016-04-08T09:07:05.715Z,6496
2016-04-08T09:08:05.718Z,6080
2016-04-08T09:09:05.704Z,6228
2016-04-08T09:10:05.708Z,6220
2016-04-08T09:11:05.710Z,6424
2016-04-08T09:12:05.728Z,6708
2016-04-08T09:13:05.700Z,6624
2016-04-08T09:14:05.703Z,6612
2016-04-08T09:15:05.706Z,6708
2016-04-08T09:16:05.568Z,6720
2016-04-08T09:17:05.726Z,7240
2016-04-08T09:18:05.697Z,7152
2016-04-08T09:19:05.700Z,6760
2016-04-08T09:20:05.703Z,6684
2016-04-08T09:21:05.706Z,6448
2016-04-08T09:22:05.724Z,6388
2016-04-08T09:23:06.024Z,6724
2016-04-08T09:24:05.558Z,6444
2016-04-08T09:25:05.716Z,6468
2016-04-08T09:26:05.564Z,7420
2016-04-08T09:27:05.753Z,6892
2016-04-08T09:28:05.724Z,6332
2016-04-08T09:29:05.744Z,7484
2016-04-08T09:30:05.714Z,6924
2016-04-08T09:31:05.780Z,7388
2016-04-08T09:32:05.735Z,7020
2016-04-08T09:33:05.738Z,6976
2016-04-08T09:34:05.710Z,6800
2016-04-08T09:35:05.744Z,6788
2016-04-08T09:36:05.731Z,6736
2016-04-08T09:37:05.718Z,6768
2016-04-08T09:38:05.735Z,6152
2016-04-08T09:39:05.723Z,6468
2016-04-08T09:40:05.726Z,7256
2016-04-08T09:41:05.743Z,6280
2016-04-08T09:42:05.746Z,6832
2016-04-08T09:43:05.734Z,6116
2016-04-08T09:44:05.736Z,6492
2016-04-08T09:45:05.754Z,6772
2016-04-08T09:46:05.742Z,6468
2016-04-08T09:47:05.729Z,6504
2016-04-08T09:48:05.731Z,6484
2016-04-08T09:49:05.719Z,6140
2016-04-08T09:50:05.722Z,6276
2016-04-08T09:51:05.739Z,6516
2016-04-08T09:52:05.727Z,6856
2016-04-08T09:53:05.730Z,7280
2016-04-08T09:54:05.732Z,7516
2016-04-08T09:55:05.736Z,7464
2016-04-08T09:56:05.738Z,7352
2016-04-08T09:57:05.740Z,7792
2016-04-08T09:58:05.731Z,8788
2016-04-08T09:59:05.749Z,8820
2016-04-08T10:00:06.018Z,8700
2016-04-08T10:01:05.740Z,8564
2016-04-08T10:02:05.726Z,8448
2016-04-08T10:03:05.745Z,8340
2016-04-08T10:04:05.576Z,8164
2016-04-08T10:05:05.765Z,8020
2016-04-08T10:06:05.753Z,7872
2016-04-08T10:07:05.739Z,7756
2016-04-08T10:08:05.758Z,7620
2016-04-08T10:09:05.730Z,7532
2016-04-08T10:10:05.747Z,7516
2016-04-08T10:11:05.751Z,7504
2016-04-08T10:12:05.753Z,7496
2016-04-08T10:13:05.771Z,7444
2016-04-08T10:14:05.743Z,7412
2016-04-08T10:15:05.777Z,7292
2016-04-08T10:16:05.749Z,7240
2016-04-08T10:17:05.751Z,7192
2016-04-08T10:18:05.754Z,7172
2016-04-08T10:19:05.757Z,7208
2016-04-08T10:20:05.759Z,7232
2016-04-08T10:21:05.747Z,7260
2016-04-08T10:22:05.765Z,7280
2016-04-08T10:23:05.751Z,7276
2016-04-08T10:24:05.755Z,7268
2016-04-08T10:25:05.757Z,7256
2016-04-08T10:26:05.760Z,7240
2016-04-08T10:27:05.746Z,7180
2016-04-08T10:28:05.765Z,7252
2016-04-08T10:29:05.768Z,7220
2016-04-08T10:30:05.818Z,7300
2016-04-08T10:31:05.773Z,7264
2016-04-08T10:32:05.759Z,7140
2016-04-08T10:33:05.778Z,7128
2016-04-08T10:34:05.765Z,7164
2016-04-08T10:35:05.753Z,7084
2016-04-08T10:36:05.786Z,6988
2016-04-08T10:37:05.773Z,6888
2016-04-08T10:38:05.792Z,6716
2016-04-08T10:39:05.764Z,6516
2016-04-08T10:40:05.781Z,6416
2016-04-08T10:41:05.784Z,6444
2016-04-08T10:42:05.786Z,7068
2016-04-08T10:43:05.775Z,7176
2016-04-08T10:44:05.777Z,7228
2016-04-08T10:45:05.858Z,7232
2016-04-08T10:46:05.782Z,7208
2016-04-08T10:47:05.816Z,7252
2016-04-08T10:48:05.803Z,7120
2016-04-08T10:49:05.806Z,7000
2016-04-08T10:50:05.793Z,7056
2016-04-08T10:51:05.873Z,7188
2016-04-08T10:52:05.861Z,7360
2016-04-08T10:53:05.801Z,7468
2016-04-08T10:54:05.804Z,7412
2016-04-08T10:55:05.790Z,7440
2016-04-08T10:56:05.793Z,7316
2016-04-08T10:57:05.796Z,7612
2016-04-08T10:58:05.815Z,7720
2016-04-08T10:59:05.802Z,7672
2016-04-08T11:00:05.913Z,7540
2016-04-08T11:01:05.803Z,7624
2016-04-08T11:02:05.823Z,7628
2016-04-08T11:03:05.809Z,7648
2016-04-08T11:04:05.811Z,7764
2016-04-08T11:05:05.831Z,7856
2016-04-08T11:06:05.817Z,7904
2016-04-08T11:07:05.836Z,7880
2016-04-08T11:08:05.807Z,8000
2016-04-08T11:09:05.810Z,7884
2016-04-08T11:10:05.828Z,7780
2016-04-08T11:11:05.816Z,7760
2016-04-08T11:12:05.833Z,8028
2016-04-08T11:13:05.071Z,8180
2016-04-08T11:14:05.823Z,8208
2016-04-08T11:15:05.763Z,8160
2016-04-08T11:16:05.829Z,8192
2016-04-08T11:17:05.832Z,8232
2016-04-08T11:18:05.835Z,8332
2016-04-08T11:19:05.680Z,8332
2016-04-08T11:20:05.840Z,8332
2016-04-08T11:21:05.843Z,8472
2016-04-08T11:22:05.829Z,8660
2016-04-08T11:23:05.847Z,8800
2016-04-08T11:24:05.835Z,9028
2016-04-08T11:25:05.853Z,9120
2016-04-08T11:26:05.839Z,9392
2016-04-08T11:27:05.873Z,9396
2016-04-08T11:28:05.861Z,9416
2016-04-08T11:29:05.848Z,9404
2016-04-08T11:30:05.929Z,9428
2016-04-08T11:31:05.853Z,9580
2016-04-08T11:32:05.872Z,9696
2016-04-08T11:33:05.858Z,9816
2016-04-08T11:34:05.862Z,9888
2016-04-08T11:35:05.864Z,9816
2016-04-08T11:36:05.883Z,9960
2016-04-08T11:37:05.901Z,9964
2016-04-08T11:38:05.872Z,9880
2016-04-08T11:39:05.922Z,9892
2016-04-08T11:40:05.862Z,9828
2016-04-08T11:41:05.911Z,9736
2016-04-08T11:42:06.180Z,9644
2016-04-08T11:43:05.886Z,9616
2016-04-08T11:44:05.872Z,9664
2016-04-08T11:45:05.921Z,9752
2016-04-08T11:46:05.877Z,9728
2016-04-08T11:47:05.881Z,9572
2016-04-08T11:48:05.915Z,9452
2016-04-08T11:49:05.886Z,9492
2016-04-08T11:50:05.904Z,9612
2016-04-08T11:51:05.891Z,9788
2016-04-08T11:52:05.910Z,9908
2016-04-08T11:53:05.929Z,9948
2016-04-08T11:54:05.915Z,10136
2016-04-08T11:55:05.917Z,10472
2016-04-08T11:56:05.921Z,10528
2016-04-08T11:57:05.923Z,10436
2016-04-08T11:58:05.926Z,10340
2016-04-08T11:59:05.773Z,10296
2016-04-08T12:00:05.947Z,10420
2016-04-08T12:01:05.934Z,10468
2016-04-08T12:02:05.953Z,10732
2016-04-08T12:03:05.939Z,10852
2016-04-08T12:04:05.942Z,11136
2016-04-08T12:05:05.960Z,11260
2016-04-08T12:06:05.948Z,11116
2016-04-08T12:07:05.950Z,10900
2016-04-08T12:08:05.797Z,10852
2016-04-08T12:09:05.977Z,10868
2016-04-08T12:10:05.979Z,10828
2016-04-08T12:11:05.967Z,10856
2016-04-08T12:12:05.954Z,10652
2016-04-08T12:13:05.972Z,10004
2016-04-08T12:14:05.959Z,9988
2016-04-08T12:15:05.978Z,10012
2016-04-08T12:16:05.980Z,9984
2016-04-08T12:17:05.998Z,9916
2016-04-08T12:18:05.986Z,9868
2016-04-08T12:19:05.988Z,9796
2016-04-08T12:20:06.006Z,9880
2016-04-08T12:21:05.977Z,9940
2016-04-08T12:22:06.011Z,9952
2016-04-08T12:23:05.999Z,9908
2016-04-08T12:24:06.063Z,9984
2016-04-08T12:25:05.988Z,10044
2016-04-08T12:26:06.007Z,10132
2016-04-08T12:27:05.993Z,10684
2016-04-08T12:28:06.012Z,10748
2016-04-08T12:29:06.015Z,10552
2016-04-08T12:30:05.986Z,10324
2016-04-08T12:31:05.989Z,10372
2016-04-08T12:32:06.007Z,10416
2016-04-08T12:33:06.010Z,10412
2016-04-08T12:34:05.997Z,10676
2016-04-08T12:35:06.031Z,10776
2016-04-08T12:36:06.034Z,10636
2016-04-08T12:37:06.036Z,10444
2016-04-08T12:38:06.054Z,10224
2016-04-08T12:39:06.026Z,10088
2016-04-08T12:40:06.028Z,10104
2016-04-08T12:41:06.057Z,9992
2016-04-08T12:42:06.115Z,9864
2016-04-08T12:43:06.144Z,9804
2016-04-08T12:44:06.062Z,9460
2016-04-08T12:45:06.261Z,9380
2016-04-08T12:46:06.279Z,9448
2016-04-08T12:47:06.280Z,9512
2016-04-08T12:48:06.313Z,9792
2016-04-08T12:49:06.314Z,9900
2016-04-08T12:50:06.332Z,9940
2016-04-08T12:51:06.340Z,10064
2016-04-08T12:52:06.348Z,10304
2016-04-08T12:53:06.372Z,10760
2016-04-08T12:54:06.364Z,10868
2016-04-08T12:55:06.372Z,10764
2016-04-08T12:56:06.377Z,10308
2016-04-08T12:57:06.412Z,10900
2016-04-08T12:58:06.371Z,10964
2016-04-08T12:59:06.406Z,10744
2016-04-08T13:00:06.380Z,10716
2016-04-08T13:01:06.429Z,10532
2016-04-08T13:02:06.418Z,10392
2016-04-08T13:03:06.390Z,10548
2016-04-08T13:04:06.395Z,10520
2016-04-08T13:05:06.428Z,10616
2016-04-08T13:06:06.400Z,10588
2016-04-08T13:07:06.418Z,10576
2016-04-08T13:08:06.405Z,10452
2016-04-08T13:09:06.440Z,10196
2016-04-08T13:10:06.442Z,10056
2016-04-08T13:11:06.414Z,10332
2016-04-08T13:12:06.432Z,10204
2016-04-08T13:13:06.419Z,10120
2016-04-08T13:14:06.453Z,9948
2016-04-08T13:15:06.675Z,10332
2016-04-08T13:16:06.428Z,10540
2016-04-08T13:17:06.445Z,10692
2016-04-08T13:18:06.447Z,10664
2016-04-08T13:19:06.420Z,10556
2016-04-08T13:20:06.453Z,10868
2016-04-08T13:21:06.456Z,10988
2016-04-08T13:22:06.287Z,11000
2016-04-08T13:23:06.477Z,10808
2016-04-08T13:24:06.464Z,10972
2016-04-08T13:25:06.467Z,10760
2016-04-08T13:26:06.485Z,10504
2016-04-08T13:27:06.488Z,9700
2016-04-08T13:28:06.474Z,9436
2016-04-08T13:29:06.477Z,9372
2016-04-08T13:30:06.480Z,9392
2016-04-08T13:31:06.499Z,9384
2016-04-08T13:32:06.486Z,9324
2016-04-08T13:33:06.488Z,9144
2016-04-08T13:34:06.475Z,9028
2016-04-08T13:35:06.510Z,8936
2016-04-08T13:36:06.496Z,8872
2016-04-08T13:37:07.014Z,8792
2016-04-08T13:38:06.517Z,8736
2016-04-08T13:39:06.504Z,8700
2016-04-08T13:40:06.507Z,8640
2016-04-08T13:41:06.573Z,8596
2016-04-08T13:42:06.497Z,8640
2016-04-08T13:43:06.515Z,8680
2016-04-08T13:44:06.518Z,8708
2016-04-08T13:45:06.676Z,8692